Airfield :
LOGIN :

Register | Disclaimer

   EN    FR    IT 

 










Legend :    VFR   Marginal VFR   IFR   Intensive IFR   Very Intensive IFR
Visi :
Ceiling :
>= 8 km
>= 3000ft
5 to 8 km
1000 to 3000 ft
1500m to 5 km
500 to 1000 ft
800 to 1500m
200 to 500 ft
< 800m
< 200 ft
Symbols :   Thunderstorms  Fog  Heavy snow  Heavy precipitations  Wind > 20 kt
SIGMETs :     Misc.  Thunderstorms  Icing  Turbulence  Mountain Waves  Volcanic Ashes







- Airport Elevation : 31 ft
- IATA code : INV
- Download approach charts


EGPE - Inverness

CURRENT METAR :
  • 261820Z 19008G18KT 140V270 9999 FEW012 SCT022 BKN034 11/06 Q1027

EXPIRED METARs :
  • 261750Z 24015KT 9999 FEW012 SCT020 BKN034 11/07 Q1026
  • 261720Z 23016KT 9999 FEW012 SCT020 BKN033 11/06 Q1027
  • 261650Z 23014KT 9999 FEW012 SCT020 BKN033 11/06 Q1027
  • 261620Z 24017KT 9999 FEW012 SCT020 BKN037 11/06 Q1026
  • 261550Z 25020KT 9999 FEW010 SCT025 BKN035 11/06 Q1026

TAF TAF EGPE
Valid from the 26 at 18:00 until the 27 at 03:00 UTC


261657Z 2618/2703 22013KT 9999 FEW018 SCT035
TEMPO 2618/2703 23020G30KT
ATIS : +44 1667 464 255
No reported NOTAMs for that airfield.



MET'MAP, your aeronautical weather chart ! - Copyright ORBIFLY December 2007 - Disclaimer

ORBIFLY MET'MAP TEAM :

Programming & Development : Alexandra Zaïnal
Concept & Development : Baudouin d'Aumeries
Co-Development & Prog : Marc-Olivier Méhu
Technical & hardware support : Manuel Goepfert

Contact : metmap@orbifly.com




SOURCES & CREDITS :

   NOAA